sensor_id;sensor_type;location;lat;lon;timestamp;temperature;humidity
15983;DHT22;14442;50.196;8.096;2022-07-23T00:01:18;21.80;70.00
15983;DHT22;14442;50.196;8.096;2022-07-23T00:03:45;21.80;70.40
15983;DHT22;14442;50.196;8.096;2022-07-23T00:06:12;21.70;71.10
15983;DHT22;14442;50.196;8.096;2022-07-23T00:08:39;21.60;70.90
15983;DHT22;14442;50.196;8.096;2022-07-23T00:11:05;21.60;71.10
15983;DHT22;14442;50.196;8.096;2022-07-23T00:13:32;21.60;71.30
15983;DHT22;14442;50.196;8.096;2022-07-23T00:15:59;21.60;71.50
15983;DHT22;14442;50.196;8.096;2022-07-23T00:18:27;21.50;71.70
15983;DHT22;14442;50.196;8.096;2022-07-23T00:20:54;21.50;71.90
15983;DHT22;14442;50.196;8.096;2022-07-23T00:23:21;21.50;73.00
15983;DHT22;14442;50.196;8.096;2022-07-23T00:25:47;21.40;73.00
15983;DHT22;14442;50.196;8.096;2022-07-23T00:28:14;21.40;73.20
15983;DHT22;14442;50.196;8.096;2022-07-23T00:30:41;21.30;73.30
15983;DHT22;14442;50.196;8.096;2022-07-23T00:33:08;21.40;73.50
15983;DHT22;14442;50.196;8.096;2022-07-23T00:35:37;21.40;73.90
15983;DHT22;14442;50.196;8.096;2022-07-23T00:38:06;21.30;74.00
15983;DHT22;14442;50.196;8.096;2022-07-23T00:40:35;21.30;74.40
15983;DHT22;14442;50.196;8.096;2022-07-23T00:43:02;21.30;74.30
15983;DHT22;14442;50.196;8.096;2022-07-23T00:45:30;21.40;74.30
15983;DHT22;14442;50.196;8.096;2022-07-23T00:47:57;21.30;75.10
15983;DHT22;14442;50.196;8.096;2022-07-23T00:50:24;21.20;75.20
15983;DHT22;14442;50.196;8.096;2022-07-23T00:52:53;21.10;75.90
15983;DHT22;14442;50.196;8.096;2022-07-23T00:55:20;21.00;76.80
15983;DHT22;14442;50.196;8.096;2022-07-23T00:57:47;20.80;78.10
15983;DHT22;14442;50.196;8.096;2022-07-23T01:00:15;20.80;78.90
15983;DHT22;14442;50.196;8.096;2022-07-23T01:02:42;20.80;78.70
15983;DHT22;14442;50.196;8.096;2022-07-23T01:05:09;20.80;79.20
15983;DHT22;14442;50.196;8.096;2022-07-23T01:07:37;20.80;78.80
15983;DHT22;14442;50.196;8.096;2022-07-23T01:10:06;20.80;79.50
15983;DHT22;14442;50.196;8.096;2022-07-23T01:12:54;20.80;79.60
15983;DHT22;14442;50.196;8.096;2022-07-23T01:15:21;20.80;79.80
15983;DHT22;14442;50.196;8.096;2022-07-23T01:17:48;20.90;79.30
15983;DHT22;14442;50.196;8.096;2022-07-23T01:20:15;21.00;78.90
15983;DHT22;14442;50.196;8.096;2022-07-23T01:22:43;21.00;78.50
15983;DHT22;14442;50.196;8.096;2022-07-23T01:25:10;21.00;79.20
15983;DHT22;14442;50.196;8.096;2022-07-23T01:27:36;20.80;80.20
15983;DHT22;14442;50.196;8.096;2022-07-23T01:30:05;20.70;80.60
15983;DHT22;14442;50.196;8.096;2022-07-23T01:32:31;20.70;81.20
15983;DHT22;14442;50.196;8.096;2022-07-23T01:34:58;20.80;80.70
15983;DHT22;14442;50.196;8.096;2022-07-23T01:37:25;20.90;80.40
15983;DHT22;14442;50.196;8.096;2022-07-23T01:39:53;20.90;80.60
15983;DHT22;14442;50.196;8.096;2022-07-23T01:42:20;20.80;80.90
15983;DHT22;14442;50.196;8.096;2022-07-23T01:44:47;20.80;80.50
15983;DHT22;14442;50.196;8.096;2022-07-23T01:47:13;20.60;81.80
15983;DHT22;14442;50.196;8.096;2022-07-23T01:49:40;20.50;82.00
15983;DHT22;14442;50.196;8.096;2022-07-23T01:52:07;20.50;82.30
15983;DHT22;14442;50.196;8.096;2022-07-23T01:54:37;20.60;81.50
15983;DHT22;14442;50.196;8.096;2022-07-23T01:57:05;20.50;81.80
15983;DHT22;14442;50.196;8.096;2022-07-23T01:59:32;20.50;82.00
15983;DHT22;14442;50.196;8.096;2022-07-23T02:01:58;20.40;82.20
15983;DHT22;14442;50.196;8.096;2022-07-23T02:04:25;20.30;82.90
15983;DHT22;14442;50.196;8.096;2022-07-23T02:06:53;20.40;82.60
15983;DHT22;14442;50.196;8.096;2022-07-23T02:09:20;20.60;81.10
15983;DHT22;14442;50.196;8.096;2022-07-23T02:11:46;20.80;80.20
15983;DHT22;14442;50.196;8.096;2022-07-23T02:14:14;20.80;79.90
15983;DHT22;14442;50.196;8.096;2022-07-23T02:16:41;20.70;80.50
15983;DHT22;14442;50.196;8.096;2022-07-23T02:19:08;20.70;80.80
15983;DHT22;14442;50.196;8.096;2022-07-23T02:21:34;20.80;79.70
15983;DHT22;14442;50.196;8.096;2022-07-23T02:24:01;20.80;79.20
15983;DHT22;14442;50.196;8.096;2022-07-23T02:26:28;20.70;79.60
15983;DHT22;14442;50.196;8.096;2022-07-23T02:28:55;20.60;80.50
15983;DHT22;14442;50.196;8.096;2022-07-23T02:31:23;20.50;80.90
15983;DHT22;14442;50.196;8.096;2022-07-23T02:33:49;20.30;81.10
15983;DHT22;14442;50.196;8.096;2022-07-23T02:36:16;20.40;80.80
15983;DHT22;14442;50.196;8.096;2022-07-23T02:38:43;20.50;79.90
15983;DHT22;14442;50.196;8.096;2022-07-23T02:41:10;20.70;78.70
15983;DHT22;14442;50.196;8.096;2022-07-23T02:43:36;20.80;78.10
15983;DHT22;14442;50.196;8.096;2022-07-23T02:46:03;20.80;78.10
15983;DHT22;14442;50.196;8.096;2022-07-23T02:48:31;20.70;78.30
15983;DHT22;14442;50.196;8.096;2022-07-23T02:50:58;20.70;78.60
15983;DHT22;14442;50.196;8.096;2022-07-23T02:53:25;20.50;79.40
15983;DHT22;14442;50.196;8.096;2022-07-23T02:55:52;20.50;79.20
15983;DHT22;14442;50.196;8.096;2022-07-23T02:58:18;20.50;79.10
15983;DHT22;14442;50.196;8.096;2022-07-23T03:00:45;20.60;78.80
15983;DHT22;14442;50.196;8.096;2022-07-23T03:03:12;20.70;77.80
15983;DHT22;14442;50.196;8.096;2022-07-23T03:05:40;20.60;77.80
15983;DHT22;14442;50.196;8.096;2022-07-23T03:08:07;20.60;77.50
15983;DHT22;14442;50.196;8.096;2022-07-23T03:10:34;20.60;77.90
15983;DHT22;14442;50.196;8.096;2022-07-23T03:13:00;20.20;79.10
15983;DHT22;14442;50.196;8.096;2022-07-23T03:15:27;20.00;80.00
15983;DHT22;14442;50.196;8.096;2022-07-23T03:17:54;19.90;80.10
15983;DHT22;14442;50.196;8.096;2022-07-23T03:20:20;20.00;79.40
15983;DHT22;14442;50.196;8.096;2022-07-23T03:22:48;20.20;78.90
15983;DHT22;14442;50.196;8.096;2022-07-23T03:25:15;20.20;78.70
15983;DHT22;14442;50.196;8.096;2022-07-23T03:27:42;20.30;78.90
15983;DHT22;14442;50.196;8.096;2022-07-23T03:30:11;20.20;78.50
15983;DHT22;14442;50.196;8.096;2022-07-23T03:32:38;20.20;79.00
15983;DHT22;14442;50.196;8.096;2022-07-23T03:35:05;20.30;79.00
15983;DHT22;14442;50.196;8.096;2022-07-23T03:37:32;20.20;79.40
15983;DHT22;14442;50.196;8.096;2022-07-23T03:40:00;20.30;79.30
15983;DHT22;14442;50.196;8.096;2022-07-23T03:42:27;20.30;78.90
15983;DHT22;14442;50.196;8.096;2022-07-23T03:44:54;20.30;79.00
15983;DHT22;14442;50.196;8.096;2022-07-23T03:47:20;20.30;79.10
15983;DHT22;14442;50.196;8.096;2022-07-23T03:49:48;20.20;79.10
15983;DHT22;14442;50.196;8.096;2022-07-23T03:52:14;20.20;79.10
15983;DHT22;14442;50.196;8.096;2022-07-23T03:54:41;20.30;78.70
15983;DHT22;14442;50.196;8.096;2022-07-23T03:57:09;20.20;78.50
15983;DHT22;14442;50.196;8.096;2022-07-23T03:59:36;20.20;78.10
15983;DHT22;14442;50.196;8.096;2022-07-23T04:02:03;20.30;78.10
15983;DHT22;14442;50.196;8.096;2022-07-23T04:04:29;20.20;78.20
15983;DHT22;14442;50.196;8.096;2022-07-23T04:06:56;20.30;78.40
15983;DHT22;14442;50.196;8.096;2022-07-23T04:09:23;20.20;79.10
15983;DHT22;14442;50.196;8.096;2022-07-23T04:11:49;20.30;78.30
15983;DHT22;14442;50.196;8.096;2022-07-23T04:14:17;20.30;78.80
15983;DHT22;14442;50.196;8.096;2022-07-23T04:16:44;20.30;78.20
15983;DHT22;14442;50.196;8.096;2022-07-23T04:19:11;20.30;78.60
15983;DHT22;14442;50.196;8.096;2022-07-23T04:21:37;20.20;78.40
15983;DHT22;14442;50.196;8.096;2022-07-23T04:24:04;20.30;78.30
15983;DHT22;14442;50.196;8.096;2022-07-23T04:26:31;20.40;78.10
15983;DHT22;14442;50.196;8.096;2022-07-23T04:28:58;20.40;78.10
15983;DHT22;14442;50.196;8.096;2022-07-23T04:31:26;20.20;78.70
15983;DHT22;14442;50.196;8.096;2022-07-23T04:33:52;20.20;78.20
15983;DHT22;14442;50.196;8.096;2022-07-23T04:36:19;20.30;78.20
15983;DHT22;14442;50.196;8.096;2022-07-23T04:38:46;20.40;78.10
15983;DHT22;14442;50.196;8.096;2022-07-23T04:41:12;20.40;77.60
15983;DHT22;14442;50.196;8.096;2022-07-23T04:43:39;20.40;77.50
15983;DHT22;14442;50.196;8.096;2022-07-23T04:46:06;20.30;78.00
15983;DHT22;14442;50.196;8.096;2022-07-23T04:48:34;20.20;79.30
15983;DHT22;14442;50.196;8.096;2022-07-23T04:51:01;20.20;79.10
15983;DHT22;14442;50.196;8.096;2022-07-23T04:53:27;20.30;79.00
15983;DHT22;14442;50.196;8.096;2022-07-23T04:55:54;20.30;79.10
15983;DHT22;14442;50.196;8.096;2022-07-23T04:58:21;20.30;78.40
15983;DHT22;14442;50.196;8.096;2022-07-23T05:00:48;20.20;79.50
15983;DHT22;14442;50.196;8.096;2022-07-23T05:03:15;20.30;79.70
15983;DHT22;14442;50.196;8.096;2022-07-23T05:05:43;20.20;79.70
15983;DHT22;14442;50.196;8.096;2022-07-23T05:08:10;20.30;79.90
15983;DHT22;14442;50.196;8.096;2022-07-23T05:10:36;20.20;80.70
15983;DHT22;14442;50.196;8.096;2022-07-23T05:13:03;20.10;81.30
15983;DHT22;14442;50.196;8.096;2022-07-23T05:15:30;20.00;82.00
15983;DHT22;14442;50.196;8.096;2022-07-23T05:17:56;19.90;83.00
15983;DHT22;14442;50.196;8.096;2022-07-23T05:20:23;19.70;84.00
15983;DHT22;14442;50.196;8.096;2022-07-23T05:22:51;19.60;85.00
15983;DHT22;14442;50.196;8.096;2022-07-23T05:25:18;19.60;85.60
15983;DHT22;14442;50.196;8.096;2022-07-23T05:27:45;19.80;84.50
15983;DHT22;14442;50.196;8.096;2022-07-23T05:30:12;20.00;83.20
15983;DHT22;14442;50.196;8.096;2022-07-23T05:32:39;19.90;83.30
15983;DHT22;14442;50.196;8.096;2022-07-23T05:35:06;20.10;82.60
15983;DHT22;14442;50.196;8.096;2022-07-23T05:37:33;20.10;83.10
15983;DHT22;14442;50.196;8.096;2022-07-23T05:40:02;20.10;82.80
15983;DHT22;14442;50.196;8.096;2022-07-23T05:42:31;20.10;82.50
15983;DHT22;14442;50.196;8.096;2022-07-23T05:44:58;20.20;82.40
15983;DHT22;14442;50.196;8.096;2022-07-23T05:47:25;20.20;81.70
15983;DHT22;14442;50.196;8.096;2022-07-23T05:49:51;20.30;81.60
15983;DHT22;14442;50.196;8.096;2022-07-23T05:52:18;20.20;81.70
15983;DHT22;14442;50.196;8.096;2022-07-23T05:54:45;20.30;82.30
15983;DHT22;14442;50.196;8.096;2022-07-23T05:57:13;20.30;81.80
15983;DHT22;14442;50.196;8.096;2022-07-23T05:59:40;20.30;81.40
15983;DHT22;14442;50.196;8.096;2022-07-23T06:02:07;20.40;81.80
15983;DHT22;14442;50.196;8.096;2022-07-23T06:04:33;20.20;82.30
15983;DHT22;14442;50.196;8.096;2022-07-23T06:07:00;20.30;82.50
15983;DHT22;14442;50.196;8.096;2022-07-23T06:09:27;20.20;82.50
15983;DHT22;14442;50.196;8.096;2022-07-23T06:11:54;20.40;82.20
15983;DHT22;14442;50.196;8.096;2022-07-23T06:14:22;20.40;81.40
15983;DHT22;14442;50.196;8.096;2022-07-23T06:16:49;20.40;82.10
15983;DHT22;14442;50.196;8.096;2022-07-23T06:19:15;20.40;82.70
15983;DHT22;14442;50.196;8.096;2022-07-23T06:21:42;20.20;83.40
15983;DHT22;14442;50.196;8.096;2022-07-23T06:24:09;20.10;83.60
15983;DHT22;14442;50.196;8.096;2022-07-23T06:26:36;20.20;82.90
15983;DHT22;14442;50.196;8.096;2022-07-23T06:29:03;20.10;84.00
15983;DHT22;14442;50.196;8.096;2022-07-23T06:31:31;20.10;84.00
15983;DHT22;14442;50.196;8.096;2022-07-23T06:33:57;20.30;83.10
15983;DHT22;14442;50.196;8.096;2022-07-23T06:36:24;20.40;82.50
15983;DHT22;14442;50.196;8.096;2022-07-23T06:38:51;20.40;82.30
15983;DHT22;14442;50.196;8.096;2022-07-23T06:41:18;20.30;82.90
15983;DHT22;14442;50.196;8.096;2022-07-23T06:43:44;20.30;82.60
15983;DHT22;14442;50.196;8.096;2022-07-23T06:46:11;20.20;82.70
15983;DHT22;14442;50.196;8.096;2022-07-23T06:48:39;20.20;83.50
15983;DHT22;14442;50.196;8.096;2022-07-23T06:51:06;20.20;82.90
15983;DHT22;14442;50.196;8.096;2022-07-23T06:53:32;20.40;82.80
15983;DHT22;14442;50.196;8.096;2022-07-23T06:55:59;20.70;81.50
15983;DHT22;14442;50.196;8.096;2022-07-23T06:58:26;21.00;80.50
15983;DHT22;14442;50.196;8.096;2022-07-23T07:00:53;21.10;80.00
15983;DHT22;14442;50.196;8.096;2022-07-23T07:03:20;21.20;79.90
15983;DHT22;14442;50.196;8.096;2022-07-23T07:05:48;21.30;79.70
15983;DHT22;14442;50.196;8.096;2022-07-23T07:08:15;21.30;79.50
15983;DHT22;14442;50.196;8.096;2022-07-23T07:10:42;21.40;79.40
15983;DHT22;14442;50.196;8.096;2022-07-23T07:13:08;21.40;79.20
15983;DHT22;14442;50.196;8.096;2022-07-23T07:15:35;21.50;78.80
15983;DHT22;14442;50.196;8.096;2022-07-23T07:18:02;21.50;78.80
15983;DHT22;14442;50.196;8.096;2022-07-23T07:20:29;21.50;78.60
15983;DHT22;14442;50.196;8.096;2022-07-23T07:22:57;21.50;78.20
15983;DHT22;14442;50.196;8.096;2022-07-23T07:25:24;21.50;78.30
15983;DHT22;14442;50.196;8.096;2022-07-23T07:27:51;21.60;78.40
15983;DHT22;14442;50.196;8.096;2022-07-23T07:30:17;21.60;78.50
15983;DHT22;14442;50.196;8.096;2022-07-23T07:32:44;21.60;78.20
15983;DHT22;14442;50.196;8.096;2022-07-23T07:35:11;21.60;78.10
15983;DHT22;14442;50.196;8.096;2022-07-23T07:37:37;21.60;77.80
15983;DHT22;14442;50.196;8.096;2022-07-23T07:40:07;21.70;78.10
15983;DHT22;14442;50.196;8.096;2022-07-23T07:42:34;21.70;77.90
15983;DHT22;14442;50.196;8.096;2022-07-23T07:45:01;21.70;77.60
15983;DHT22;14442;50.196;8.096;2022-07-23T07:47:27;21.70;77.50
15983;DHT22;14442;50.196;8.096;2022-07-23T07:49:54;21.70;77.60
15983;DHT22;14442;50.196;8.096;2022-07-23T07:52:21;21.70;77.50
15983;DHT22;14442;50.196;8.096;2022-07-23T07:54:48;21.70;77.40
15983;DHT22;14442;50.196;8.096;2022-07-23T07:57:16;21.70;77.50
15983;DHT22;14442;50.196;8.096;2022-07-23T07:59:43;21.80;77.50
15983;DHT22;14442;50.196;8.096;2022-07-23T08:02:09;21.80;77.40
15983;DHT22;14442;50.196;8.096;2022-07-23T08:04:36;21.80;77.20
15983;DHT22;14442;50.196;8.096;2022-07-23T08:07:03;21.80;77.10
15983;DHT22;14442;50.196;8.096;2022-07-23T08:09:30;21.80;77.10
15983;DHT22;14442;50.196;8.096;2022-07-23T08:11:56;21.80;77.10
15983;DHT22;14442;50.196;8.096;2022-07-23T08:14:25;21.90;76.90
15983;DHT22;14442;50.196;8.096;2022-07-23T08:16:51;21.80;76.90
15983;DHT22;14442;50.196;8.096;2022-07-23T08:19:18;21.90;77.00
15983;DHT22;14442;50.196;8.096;2022-07-23T08:21:45;21.90;77.00
15983;DHT22;14442;50.196;8.096;2022-07-23T08:24:11;21.80;76.90
15983;DHT22;14442;50.196;8.096;2022-07-23T08:26:38;21.80;76.60
15983;DHT22;14442;50.196;8.096;2022-07-23T08:29:06;21.90;76.50
15983;DHT22;14442;50.196;8.096;2022-07-23T08:31:34;21.80;76.00
15983;DHT22;14442;50.196;8.096;2022-07-23T08:34:01;21.90;75.90
15983;DHT22;14442;50.196;8.096;2022-07-23T08:36:28;21.90;76.00
15983;DHT22;14442;50.196;8.096;2022-07-23T08:38:57;21.90;76.20
15983;DHT22;14442;50.196;8.096;2022-07-23T08:41:24;22.00;76.00
15983;DHT22;14442;50.196;8.096;2022-07-23T08:43:51;22.00;75.70
15983;DHT22;14442;50.196;8.096;2022-07-23T08:46:19;21.90;75.60
15983;DHT22;14442;50.196;8.096;2022-07-23T08:48:48;22.00;75.50
15983;DHT22;14442;50.196;8.096;2022-07-23T08:51:16;22.00;75.20
15983;DHT22;14442;50.196;8.096;2022-07-23T08:53:44;22.00;74.90
15983;DHT22;14442;50.196;8.096;2022-07-23T08:56:11;22.00;74.40
15983;DHT22;14442;50.196;8.096;2022-07-23T08:58:38;22.00;74.30
15983;DHT22;14442;50.196;8.096;2022-07-23T09:01:05;21.90;74.00
15983;DHT22;14442;50.196;8.096;2022-07-23T09:03:34;21.90;74.00
15983;DHT22;14442;50.196;8.096;2022-07-23T09:06:03;22.00;74.20
15983;DHT22;14442;50.196;8.096;2022-07-23T09:08:35;22.00;74.00
15983;DHT22;14442;50.196;8.096;2022-07-23T09:11:03;22.00;73.60
15983;DHT22;14442;50.196;8.096;2022-07-23T09:13:33;22.00;73.40
15983;DHT22;14442;50.196;8.096;2022-07-23T09:16:03;22.00;73.20
15983;DHT22;14442;50.196;8.096;2022-07-23T09:18:36;22.00;73.10
15983;DHT22;14442;50.196;8.096;2022-07-23T09:21:16;22.00;73.10
15983;DHT22;14442;50.196;8.096;2022-07-23T09:23:46;22.00;72.90
15983;DHT22;14442;50.196;8.096;2022-07-23T09:26:24;22.00;72.70
15983;DHT22;14442;50.196;8.096;2022-07-23T09:28:54;22.00;73.20
15983;DHT22;14442;50.196;8.096;2022-07-23T09:31:22;22.00;72.60
15983;DHT22;14442;50.196;8.096;2022-07-23T09:33:49;22.00;72.70
15983;DHT22;14442;50.196;8.096;2022-07-23T09:36:27;22.10;72.70
15983;DHT22;14442;50.196;8.096;2022-07-23T09:38:54;22.10;72.50
15983;DHT22;14442;50.196;8.096;2022-07-23T09:41:21;22.10;72.20
15983;DHT22;14442;50.196;8.096;2022-07-23T09:43:55;22.20;72.20
15983;DHT22;14442;50.196;8.096;2022-07-23T09:46:23;22.10;71.90
15983;DHT22;14442;50.196;8.096;2022-07-23T09:48:50;22.10;71.90
15983;DHT22;14442;50.196;8.096;2022-07-23T09:51:20;22.10;72.20
15983;DHT22;14442;50.196;8.096;2022-07-23T09:53:51;22.20;72.40
15983;DHT22;14442;50.196;8.096;2022-07-23T09:56:19;22.10;72.10
15983;DHT22;14442;50.196;8.096;2022-07-23T09:58:50;22.20;71.70
15983;DHT22;14442;50.196;8.096;2022-07-23T10:01:17;22.20;71.90
15983;DHT22;14442;50.196;8.096;2022-07-23T10:03:45;22.20;71.70
15983;DHT22;14442;50.196;8.096;2022-07-23T10:06:13;22.10;71.80
15983;DHT22;14442;50.196;8.096;2022-07-23T10:08:44;22.20;72.00
15983;DHT22;14442;50.196;8.096;2022-07-23T10:11:12;22.20;71.90
15983;DHT22;14442;50.196;8.096;2022-07-23T10:13:40;22.20;71.70
15983;DHT22;14442;50.196;8.096;2022-07-23T10:16:21;22.20;71.60
15983;DHT22;14442;50.196;8.096;2022-07-23T10:18:48;22.20;71.40
15983;DHT22;14442;50.196;8.096;2022-07-23T10:21:21;22.30;71.30
15983;DHT22;14442;50.196;8.096;2022-07-23T10:24:04;22.30;71.30
15983;DHT22;14442;50.196;8.096;2022-07-23T10:26:41;22.20;71.30
15983;DHT22;14442;50.196;8.096;2022-07-23T10:29:16;22.30;71.60
15983;DHT22;14442;50.196;8.096;2022-07-23T10:31:52;22.30;71.30
15983;DHT22;14442;50.196;8.096;2022-07-23T10:34:28;22.30;71.30
15983;DHT22;14442;50.196;8.096;2022-07-23T10:37:01;22.30;71.30
15983;DHT22;14442;50.196;8.096;2022-07-23T10:39:33;22.40;72.30
15983;DHT22;14442;50.196;8.096;2022-07-23T10:42:10;22.40;72.50
15983;DHT22;14442;50.196;8.096;2022-07-23T10:44:39;22.40;72.60
15983;DHT22;14442;50.196;8.096;2022-07-23T10:47:08;22.40;73.00
15983;DHT22;14442;50.196;8.096;2022-07-23T10:49:48;22.40;72.70
15983;DHT22;14442;50.196;8.096;2022-07-23T10:52:20;22.40;72.60
15983;DHT22;14442;50.196;8.096;2022-07-23T10:54:49;22.40;72.10
15983;DHT22;14442;50.196;8.096;2022-07-23T10:57:17;22.40;72.10
15983;DHT22;14442;50.196;8.096;2022-07-23T11:02:58;22.40;71.80
15983;DHT22;14442;50.196;8.096;2022-07-23T11:05:38;22.40;71.60
15983;DHT22;14442;50.196;8.096;2022-07-23T11:08:13;22.40;71.40
15983;DHT22;14442;50.196;8.096;2022-07-23T11:10:48;22.40;71.70
15983;DHT22;14442;50.196;8.096;2022-07-23T11:13:30;22.40;71.40
15983;DHT22;14442;50.196;8.096;2022-07-23T11:16:17;22.40;71.30
15983;DHT22;14442;50.196;8.096;2022-07-23T11:18:59;22.40;71.30
15983;DHT22;14442;50.196;8.096;2022-07-23T11:21:50;22.40;71.70
15983;DHT22;14442;50.196;8.096;2022-07-23T11:24:19;22.40;71.80
15983;DHT22;14442;50.196;8.096;2022-07-23T11:26:56;22.40;71.70
15983;DHT22;14442;50.196;8.096;2022-07-23T11:29:43;22.40;71.40
15983;DHT22;14442;50.196;8.096;2022-07-23T11:32:28;22.50;71.40
15983;DHT22;14442;50.196;8.096;2022-07-23T11:34:56;22.50;71.40
15983;DHT22;14442;50.196;8.096;2022-07-23T11:37:35;22.40;72.00
15983;DHT22;14442;50.196;8.096;2022-07-23T11:40:06;22.40;71.10
15983;DHT22;14442;50.196;8.096;2022-07-23T11:42:36;22.40;71.10
15983;DHT22;14442;50.196;8.096;2022-07-23T11:45:05;22.50;71.10
15983;DHT22;14442;50.196;8.096;2022-07-23T11:47:32;22.50;71.10
15983;DHT22;14442;50.196;8.096;2022-07-23T11:50:00;22.50;71.00
15983;DHT22;14442;50.196;8.096;2022-07-23T11:52:27;22.50;71.10
15983;DHT22;14442;50.196;8.096;2022-07-23T11:54:57;22.50;70.90
15983;DHT22;14442;50.196;8.096;2022-07-23T11:57:26;22.60;71.70
15983;DHT22;14442;50.196;8.096;2022-07-23T11:59:56;22.50;70.90
15983;DHT22;14442;50.196;8.096;2022-07-23T12:02:24;22.60;70.80
15983;DHT22;14442;50.196;8.096;2022-07-23T12:04:52;22.60;70.70
15983;DHT22;14442;50.196;8.096;2022-07-23T12:07:27;22.60;70.50
15983;DHT22;14442;50.196;8.096;2022-07-23T12:09:56;22.60;70.60
15983;DHT22;14442;50.196;8.096;2022-07-23T12:12:24;22.60;70.60
15983;DHT22;14442;50.196;8.096;2022-07-23T12:14:52;22.60;70.60
15983;DHT22;14442;50.196;8.096;2022-07-23T12:17:26;22.60;70.70
15983;DHT22;14442;50.196;8.096;2022-07-23T12:19:55;22.70;70.80
15983;DHT22;14442;50.196;8.096;2022-07-23T12:22:22;22.60;70.70
15983;DHT22;14442;50.196;8.096;2022-07-23T12:24:53;22.60;70.80
15983;DHT22;14442;50.196;8.096;2022-07-23T12:27:20;22.70;71.00
15983;DHT22;14442;50.196;8.096;2022-07-23T12:29:47;22.70;71.00
15983;DHT22;14442;50.196;8.096;2022-07-23T12:32:18;22.70;71.00
15983;DHT22;14442;50.196;8.096;2022-07-23T12:34:48;22.70;71.00
15983;DHT22;14442;50.196;8.096;2022-07-23T12:37:26;22.70;70.60
15983;DHT22;14442;50.196;8.096;2022-07-23T12:39:53;22.70;70.50
15983;DHT22;14442;50.196;8.096;2022-07-23T12:42:20;22.70;70.60
15983;DHT22;14442;50.196;8.096;2022-07-23T12:45:07;22.80;70.80
15983;DHT22;14442;50.196;8.096;2022-07-23T12:47:53;22.80;70.70
15983;DHT22;14442;50.196;8.096;2022-07-23T12:50:40;22.80;70.70
15983;DHT22;14442;50.196;8.096;2022-07-23T12:53:08;22.80;71.30
15983;DHT22;14442;50.196;8.096;2022-07-23T12:55:36;22.90;70.80
15983;DHT22;14442;50.196;8.096;2022-07-23T12:58:09;22.90;70.80
15983;DHT22;14442;50.196;8.096;2022-07-23T13:00:54;22.90;70.80
15983;DHT22;14442;50.196;8.096;2022-07-23T13:03:23;22.90;70.50
15983;DHT22;14442;50.196;8.096;2022-07-23T13:05:51;22.90;70.30
15983;DHT22;14442;50.196;8.096;2022-07-23T13:08:18;23.00;70.20
15983;DHT22;14442;50.196;8.096;2022-07-23T13:10:45;23.00;70.20
15983;DHT22;14442;50.196;8.096;2022-07-23T13:13:14;23.00;70.10
15983;DHT22;14442;50.196;8.096;2022-07-23T13:15:41;23.00;70.00
15983;DHT22;14442;50.196;8.096;2022-07-23T13:18:08;23.00;69.90
15983;DHT22;14442;50.196;8.096;2022-07-23T13:20:35;23.00;69.80
15983;DHT22;14442;50.196;8.096;2022-07-23T13:23:05;23.00;69.70
15983;DHT22;14442;50.196;8.096;2022-07-23T13:25:32;23.10;69.80
15983;DHT22;14442;50.196;8.096;2022-07-23T13:27:59;23.00;69.80
15983;DHT22;14442;50.196;8.096;2022-07-23T13:30:26;23.00;69.80
15983;DHT22;14442;50.196;8.096;2022-07-23T13:32:53;23.10;69.70
15983;DHT22;14442;50.196;8.096;2022-07-23T13:35:19;23.10;69.70
15983;DHT22;14442;50.196;8.096;2022-07-23T13:37:46;23.10;69.50
15983;DHT22;14442;50.196;8.096;2022-07-23T13:40:14;23.10;69.40
15983;DHT22;14442;50.196;8.096;2022-07-23T13:42:41;23.10;69.30
15983;DHT22;14442;50.196;8.096;2022-07-23T13:45:08;23.10;69.20
15983;DHT22;14442;50.196;8.096;2022-07-23T13:47:35;23.20;69.70
15983;DHT22;14442;50.196;8.096;2022-07-23T13:50:02;23.10;69.20
15983;DHT22;14442;50.196;8.096;2022-07-23T13:52:29;23.20;69.10
15983;DHT22;14442;50.196;8.096;2022-07-23T13:54:57;23.20;69.10
15983;DHT22;14442;50.196;8.096;2022-07-23T13:57:25;23.20;69.10
15983;DHT22;14442;50.196;8.096;2022-07-23T13:59:52;23.20;68.80
15983;DHT22;14442;50.196;8.096;2022-07-23T14:02:18;23.30;68.80
15983;DHT22;14442;50.196;8.096;2022-07-23T14:04:45;23.30;68.70
15983;DHT22;14442;50.196;8.096;2022-07-23T14:07:12;23.30;68.80
15983;DHT22;14442;50.196;8.096;2022-07-23T14:09:39;23.30;68.60
15983;DHT22;14442;50.196;8.096;2022-07-23T14:12:06;23.30;68.40
15983;DHT22;14442;50.196;8.096;2022-07-23T14:14:35;23.30;68.60
15983;DHT22;14442;50.196;8.096;2022-07-23T14:17:02;23.30;68.50
15983;DHT22;14442;50.196;8.096;2022-07-23T14:19:28;23.30;68.60
15983;DHT22;14442;50.196;8.096;2022-07-23T14:21:55;23.40;68.60
15983;DHT22;14442;50.196;8.096;2022-07-23T14:24:22;23.40;68.60
15983;DHT22;14442;50.196;8.096;2022-07-23T14:26:49;23.40;68.50
15983;DHT22;14442;50.196;8.096;2022-07-23T14:29:15;23.40;68.30
15983;DHT22;14442;50.196;8.096;2022-07-23T14:31:43;23.50;68.40
15983;DHT22;14442;50.196;8.096;2022-07-23T14:34:10;23.50;68.20
15983;DHT22;14442;50.196;8.096;2022-07-23T14:36:38;23.50;68.30
15983;DHT22;14442;50.196;8.096;2022-07-23T14:39:05;23.60;68.20
15983;DHT22;14442;50.196;8.096;2022-07-23T14:41:34;23.60;68.60
15983;DHT22;14442;50.196;8.096;2022-07-23T14:44:00;23.60;68.60
15983;DHT22;14442;50.196;8.096;2022-07-23T14:46:27;23.60;68.70
15983;DHT22;14442;50.196;8.096;2022-07-23T14:48:55;23.70;68.60
15983;DHT22;14442;50.196;8.096;2022-07-23T14:51:22;23.70;68.30
15983;DHT22;14442;50.196;8.096;2022-07-23T14:53:49;23.70;68.40
15983;DHT22;14442;50.196;8.096;2022-07-23T14:56:16;23.70;68.50
15983;DHT22;14442;50.196;8.096;2022-07-23T14:58:43;23.70;68.40
15983;DHT22;14442;50.196;8.096;2022-07-23T15:01:10;23.80;68.80
15983;DHT22;14442;50.196;8.096;2022-07-23T15:03:36;23.90;69.20
15983;DHT22;14442;50.196;8.096;2022-07-23T15:06:05;23.90;69.00
15983;DHT22;14442;50.196;8.096;2022-07-23T15:08:32;23.80;68.90
15983;DHT22;14442;50.196;8.096;2022-07-23T15:10:58;23.80;68.80
15983;DHT22;14442;50.196;8.096;2022-07-23T15:13:25;23.80;68.60
15983;DHT22;14442;50.196;8.096;2022-07-23T15:15:52;23.90;68.50
15983;DHT22;14442;50.196;8.096;2022-07-23T15:18:19;23.90;68.40
15983;DHT22;14442;50.196;8.096;2022-07-23T15:20:45;23.90;68.30
15983;DHT22;14442;50.196;8.096;2022-07-23T15:23:14;23.90;68.30
15983;DHT22;14442;50.196;8.096;2022-07-23T15:25:40;23.90;67.90
15983;DHT22;14442;50.196;8.096;2022-07-23T15:28:07;23.90;67.70
15983;DHT22;14442;50.196;8.096;2022-07-23T15:30:34;23.90;67.90
15983;DHT22;14442;50.196;8.096;2022-07-23T15:33:00;23.90;68.00
15983;DHT22;14442;50.196;8.096;2022-07-23T15:35:27;23.90;67.90
15983;DHT22;14442;50.196;8.096;2022-07-23T15:37:55;23.90;68.00
15983;DHT22;14442;50.196;8.096;2022-07-23T15:40:23;23.90;68.10